sensor_id;sensor_type;location;lat;lon;timestamp;temperature;humidity
45096;DHT22;30858;51.108;8.068;2023-03-07T00:00:38;1.40;99.90
45096;DHT22;30858;51.108;8.068;2023-03-07T00:03:03;1.40;99.90
45096;DHT22;30858;51.108;8.068;2023-03-07T00:05:29;1.50;99.90
45096;DHT22;30858;51.108;8.068;2023-03-07T00:07:54;1.50;99.90
45096;DHT22;30858;51.108;8.068;2023-03-07T00:10:20;1.50;99.90
45096;DHT22;30858;51.108;8.068;2023-03-07T00:12:46;1.40;99.90
45096;DHT22;30858;51.108;8.068;2023-03-07T00:15:11;1.50;99.90
45096;DHT22;30858;51.108;8.068;2023-03-07T00:17:37;1.50;99.90
45096;DHT22;30858;51.108;8.068;2023-03-07T00:20:05;1.40;99.90
45096;DHT22;30858;51.108;8.068;2023-03-07T00:22:35;1.50;99.90
45096;DHT22;30858;51.108;8.068;2023-03-07T00:25:01;1.50;99.90
45096;DHT22;30858;51.108;8.068;2023-03-07T00:27:29;1.40;99.90
45096;DHT22;30858;51.108;8.068;2023-03-07T00:29:54;1.50;99.90
45096;DHT22;30858;51.108;8.068;2023-03-07T00:32:20;1.50;99.90
45096;DHT22;30858;51.108;8.068;2023-03-07T00:34:45;1.50;99.90
45096;DHT22;30858;51.108;8.068;2023-03-07T00:37:11;1.40;99.90
45096;DHT22;30858;51.108;8.068;2023-03-07T00:39:38;1.40;99.90
45096;DHT22;30858;51.108;8.068;2023-03-07T00:42:03;1.50;99.90
45096;DHT22;30858;51.108;8.068;2023-03-07T00:44:29;1.50;99.90
45096;DHT22;30858;51.108;8.068;2023-03-07T00:46:56;1.50;99.90
45096;DHT22;30858;51.108;8.068;2023-03-07T00:49:22;1.50;99.90
45096;DHT22;30858;51.108;8.068;2023-03-07T00:51:48;1.50;99.90
45096;DHT22;30858;51.108;8.068;2023-03-07T00:54:14;1.50;99.90
45096;DHT22;30858;51.108;8.068;2023-03-07T00:56:39;1.50;99.90
45096;DHT22;30858;51.108;8.068;2023-03-07T00:59:05;1.50;99.90
45096;DHT22;30858;51.108;8.068;2023-03-07T01:01:30;1.40;99.90
45096;DHT22;30858;51.108;8.068;2023-03-07T01:03:56;1.40;99.90
45096;DHT22;30858;51.108;8.068;2023-03-07T01:06:24;1.40;99.90
45096;DHT22;30858;51.108;8.068;2023-03-07T01:08:50;1.40;99.90
45096;DHT22;30858;51.108;8.068;2023-03-07T01:11:16;1.40;99.90
45096;DHT22;30858;51.108;8.068;2023-03-07T01:13:41;1.40;99.90
45096;DHT22;30858;51.108;8.068;2023-03-07T01:16:14;1.40;99.90
45096;DHT22;30858;51.108;8.068;2023-03-07T01:18:40;1.40;99.90
45096;DHT22;30858;51.108;8.068;2023-03-07T01:23:37;1.40;99.90
45096;DHT22;30858;51.108;8.068;2023-03-07T01:26:02;1.40;99.90
45096;DHT22;30858;51.108;8.068;2023-03-07T01:28:28;1.50;99.90
45096;DHT22;30858;51.108;8.068;2023-03-07T01:30:57;1.50;99.90
45096;DHT22;30858;51.108;8.068;2023-03-07T01:33:24;1.50;99.90
45096;DHT22;30858;51.108;8.068;2023-03-07T01:35:49;1.50;99.90
45096;DHT22;30858;51.108;8.068;2023-03-07T01:38:15;1.50;99.90
45096;DHT22;30858;51.108;8.068;2023-03-07T01:40:40;1.50;99.90
45096;DHT22;30858;51.108;8.068;2023-03-07T01:46:29;1.50;99.90
45096;DHT22;30858;51.108;8.068;2023-03-07T01:49:10;1.50;99.90
45096;DHT22;30858;51.108;8.068;2023-03-07T01:51:39;1.50;99.90
45096;DHT22;30858;51.108;8.068;2023-03-07T01:54:07;1.60;99.90
45096;DHT22;30858;51.108;8.068;2023-03-07T01:56:34;1.50;99.90
45096;DHT22;30858;51.108;8.068;2023-03-07T01:59:01;1.50;99.90
45096;DHT22;30858;51.108;8.068;2023-03-07T02:01:27;1.50;99.90
45096;DHT22;30858;51.108;8.068;2023-03-07T02:04:06;1.50;99.90
45096;DHT22;30858;51.108;8.068;2023-03-07T02:06:35;1.40;99.90
45096;DHT22;30858;51.108;8.068;2023-03-07T02:09:02;1.50;99.90
45096;DHT22;30858;51.108;8.068;2023-03-07T02:11:30;1.50;99.90
45096;DHT22;30858;51.108;8.068;2023-03-07T02:13:55;1.50;99.90
45096;DHT22;30858;51.108;8.068;2023-03-07T02:16:21;1.50;99.90
45096;DHT22;30858;51.108;8.068;2023-03-07T02:18:48;1.50;99.90
45096;DHT22;30858;51.108;8.068;2023-03-07T02:21:30;1.60;99.90
45096;DHT22;30858;51.108;8.068;2023-03-07T02:26:43;1.60;99.90
45096;DHT22;30858;51.108;8.068;2023-03-07T02:29:10;1.60;99.90
45096;DHT22;30858;51.108;8.068;2023-03-07T02:31:36;1.60;99.90
45096;DHT22;30858;51.108;8.068;2023-03-07T02:34:02;1.60;99.90
45096;DHT22;30858;51.108;8.068;2023-03-07T02:36:31;1.60;99.90
45096;DHT22;30858;51.108;8.068;2023-03-07T02:38:58;1.60;99.90
45096;DHT22;30858;51.108;8.068;2023-03-07T02:41:29;1.70;99.90
45096;DHT22;30858;51.108;8.068;2023-03-07T02:43:55;1.70;99.90
45096;DHT22;30858;51.108;8.068;2023-03-07T02:46:20;1.80;99.90
45096;DHT22;30858;51.108;8.068;2023-03-07T02:48:46;1.80;99.90
45096;DHT22;30858;51.108;8.068;2023-03-07T02:51:12;1.90;99.90
45096;DHT22;30858;51.108;8.068;2023-03-07T02:53:38;1.90;99.90
45096;DHT22;30858;51.108;8.068;2023-03-07T02:56:04;1.90;99.90
45096;DHT22;30858;51.108;8.068;2023-03-07T02:58:30;1.90;99.90
45096;DHT22;30858;51.108;8.068;2023-03-07T03:00:56;1.90;99.90
45096;DHT22;30858;51.108;8.068;2023-03-07T03:03:21;1.90;99.90
45096;DHT22;30858;51.108;8.068;2023-03-07T03:05:47;1.90;99.90
45096;DHT22;30858;51.108;8.068;2023-03-07T03:08:12;1.90;99.90
45096;DHT22;30858;51.108;8.068;2023-03-07T03:10:38;1.90;99.90
45096;DHT22;30858;51.108;8.068;2023-03-07T03:13:04;1.90;99.90
45096;DHT22;30858;51.108;8.068;2023-03-07T03:15:29;1.90;99.90
45096;DHT22;30858;51.108;8.068;2023-03-07T03:17:55;1.90;99.90
45096;DHT22;30858;51.108;8.068;2023-03-07T03:20:20;1.80;99.90
45096;DHT22;30858;51.108;8.068;2023-03-07T03:22:46;1.80;99.90
45096;DHT22;30858;51.108;8.068;2023-03-07T03:25:13;1.80;99.90
45096;DHT22;30858;51.108;8.068;2023-03-07T03:27:39;1.80;99.90
45096;DHT22;30858;51.108;8.068;2023-03-07T03:30:08;1.80;99.90
45096;DHT22;30858;51.108;8.068;2023-03-07T03:32:36;1.70;99.90
45096;DHT22;30858;51.108;8.068;2023-03-07T03:35:02;1.70;99.90
45096;DHT22;30858;51.108;8.068;2023-03-07T03:37:28;1.70;99.90
45096;DHT22;30858;51.108;8.068;2023-03-07T03:39:53;1.70;99.90
45096;DHT22;30858;51.108;8.068;2023-03-07T03:42:19;1.70;99.90
45096;DHT22;30858;51.108;8.068;2023-03-07T03:44:45;1.70;99.90
45096;DHT22;30858;51.108;8.068;2023-03-07T03:47:10;1.70;99.90
45096;DHT22;30858;51.108;8.068;2023-03-07T03:49:36;1.60;99.90
45096;DHT22;30858;51.108;8.068;2023-03-07T03:52:02;1.60;99.90
45096;DHT22;30858;51.108;8.068;2023-03-07T03:54:29;1.70;99.90
45096;DHT22;30858;51.108;8.068;2023-03-07T03:56:55;1.80;99.90
45096;DHT22;30858;51.108;8.068;2023-03-07T03:59:20;1.80;99.90
45096;DHT22;30858;51.108;8.068;2023-03-07T04:01:47;1.80;99.90
45096;DHT22;30858;51.108;8.068;2023-03-07T04:04:12;1.90;99.90
45096;DHT22;30858;51.108;8.068;2023-03-07T04:06:38;1.90;99.90
45096;DHT22;30858;51.108;8.068;2023-03-07T04:09:04;1.90;99.90
45096;DHT22;30858;51.108;8.068;2023-03-07T04:11:29;1.90;99.90
45096;DHT22;30858;51.108;8.068;2023-03-07T04:13:55;1.90;99.90
45096;DHT22;30858;51.108;8.068;2023-03-07T04:16:21;1.90;99.90
45096;DHT22;30858;51.108;8.068;2023-03-07T04:18:49;1.80;99.90
45096;DHT22;30858;51.108;8.068;2023-03-07T04:21:16;1.90;99.90
45096;DHT22;30858;51.108;8.068;2023-03-07T04:23:41;1.90;99.90
45096;DHT22;30858;51.108;8.068;2023-03-07T04:26:08;1.90;99.90
45096;DHT22;30858;51.108;8.068;2023-03-07T04:28:37;2.00;99.90
45096;DHT22;30858;51.108;8.068;2023-03-07T04:31:16;1.90;99.90
45096;DHT22;30858;51.108;8.068;2023-03-07T04:33:42;1.90;99.90
45096;DHT22;30858;51.108;8.068;2023-03-07T04:36:08;1.90;99.90
45096;DHT22;30858;51.108;8.068;2023-03-07T04:38:34;2.00;99.90
45096;DHT22;30858;51.108;8.068;2023-03-07T04:41:00;2.00;99.90
45096;DHT22;30858;51.108;8.068;2023-03-07T04:43:26;2.00;99.90
45096;DHT22;30858;51.108;8.068;2023-03-07T04:45:52;2.00;99.90
45096;DHT22;30858;51.108;8.068;2023-03-07T04:48:18;2.10;99.90
45096;DHT22;30858;51.108;8.068;2023-03-07T04:50:46;2.00;99.90
45096;DHT22;30858;51.108;8.068;2023-03-07T04:53:12;2.00;99.90
45096;DHT22;30858;51.108;8.068;2023-03-07T04:55:37;2.00;99.90
45096;DHT22;30858;51.108;8.068;2023-03-07T04:58:03;2.00;99.90
45096;DHT22;30858;51.108;8.068;2023-03-07T05:00:28;2.00;99.90
45096;DHT22;30858;51.108;8.068;2023-03-07T05:02:57;2.00;99.90
45096;DHT22;30858;51.108;8.068;2023-03-07T05:05:23;2.10;99.90
45096;DHT22;30858;51.108;8.068;2023-03-07T05:07:48;2.10;99.90
45096;DHT22;30858;51.108;8.068;2023-03-07T05:10:14;2.10;99.90
45096;DHT22;30858;51.108;8.068;2023-03-07T05:12:39;2.10;99.90
45096;DHT22;30858;51.108;8.068;2023-03-07T05:15:05;2.20;99.90
45096;DHT22;30858;51.108;8.068;2023-03-07T05:17:31;2.20;99.90
45096;DHT22;30858;51.108;8.068;2023-03-07T05:19:56;2.20;99.90
45096;DHT22;30858;51.108;8.068;2023-03-07T05:22:22;2.10;99.90
45096;DHT22;30858;51.108;8.068;2023-03-07T05:24:48;2.20;99.90
45096;DHT22;30858;51.108;8.068;2023-03-07T05:27:14;2.20;99.90
45096;DHT22;30858;51.108;8.068;2023-03-07T05:29:40;2.20;99.90
45096;DHT22;30858;51.108;8.068;2023-03-07T05:32:06;2.20;99.90
45096;DHT22;30858;51.108;8.068;2023-03-07T05:34:31;2.20;99.90
45096;DHT22;30858;51.108;8.068;2023-03-07T05:36:57;2.20;99.90
45096;DHT22;30858;51.108;8.068;2023-03-07T05:39:23;2.20;99.90
45096;DHT22;30858;51.108;8.068;2023-03-07T05:41:49;2.20;99.90
45096;DHT22;30858;51.108;8.068;2023-03-07T05:44:15;2.20;99.90
45096;DHT22;30858;51.108;8.068;2023-03-07T05:46:40;2.30;99.90
45096;DHT22;30858;51.108;8.068;2023-03-07T05:49:06;2.30;99.90
45096;DHT22;30858;51.108;8.068;2023-03-07T05:51:31;2.30;99.90
45096;DHT22;30858;51.108;8.068;2023-03-07T05:53:57;2.20;99.90
45096;DHT22;30858;51.108;8.068;2023-03-07T05:56:22;2.20;99.90
45096;DHT22;30858;51.108;8.068;2023-03-07T05:58:48;2.20;99.90
45096;DHT22;30858;51.108;8.068;2023-03-07T06:01:13;2.20;99.90
45096;DHT22;30858;51.108;8.068;2023-03-07T06:03:39;2.10;99.90
45096;DHT22;30858;51.108;8.068;2023-03-07T06:06:05;2.10;99.90
45096;DHT22;30858;51.108;8.068;2023-03-07T06:08:30;2.10;99.90
45096;DHT22;30858;51.108;8.068;2023-03-07T06:10:56;2.10;99.90
45096;DHT22;30858;51.108;8.068;2023-03-07T06:13:23;2.10;99.90
45096;DHT22;30858;51.108;8.068;2023-03-07T06:15:53;2.20;99.90
45096;DHT22;30858;51.108;8.068;2023-03-07T06:18:19;2.20;99.90
45096;DHT22;30858;51.108;8.068;2023-03-07T06:20:57;2.20;99.90
45096;DHT22;30858;51.108;8.068;2023-03-07T06:23:27;2.20;99.90
45096;DHT22;30858;51.108;8.068;2023-03-07T06:25:52;2.20;99.90
45096;DHT22;30858;51.108;8.068;2023-03-07T06:28:18;2.30;99.90
45096;DHT22;30858;51.108;8.068;2023-03-07T06:30:44;2.30;99.90
45096;DHT22;30858;51.108;8.068;2023-03-07T06:33:10;2.30;99.90
45096;DHT22;30858;51.108;8.068;2023-03-07T06:35:40;2.40;99.90
45096;DHT22;30858;51.108;8.068;2023-03-07T06:38:06;2.30;99.90
45096;DHT22;30858;51.108;8.068;2023-03-07T06:40:32;2.30;99.90
45096;DHT22;30858;51.108;8.068;2023-03-07T06:42:58;2.40;99.90
45096;DHT22;30858;51.108;8.068;2023-03-07T06:45:23;2.40;99.90
45096;DHT22;30858;51.108;8.068;2023-03-07T06:47:49;2.30;99.90
45096;DHT22;30858;51.108;8.068;2023-03-07T06:50:14;2.40;99.90
45096;DHT22;30858;51.108;8.068;2023-03-07T06:52:40;2.30;99.90
45096;DHT22;30858;51.108;8.068;2023-03-07T06:55:06;2.40;99.90
45096;DHT22;30858;51.108;8.068;2023-03-07T06:57:32;2.30;99.90
45096;DHT22;30858;51.108;8.068;2023-03-07T06:59:59;2.30;99.90
45096;DHT22;30858;51.108;8.068;2023-03-07T07:02:27;2.30;99.90
45096;DHT22;30858;51.108;8.068;2023-03-07T07:04:53;2.30;99.90
45096;DHT22;30858;51.108;8.068;2023-03-07T07:07:19;2.40;99.90
45096;DHT22;30858;51.108;8.068;2023-03-07T07:09:44;2.40;99.90
45096;DHT22;30858;51.108;8.068;2023-03-07T07:12:10;2.40;99.90
45096;DHT22;30858;51.108;8.068;2023-03-07T07:14:35;2.40;99.90
45096;DHT22;30858;51.108;8.068;2023-03-07T07:17:01;2.40;99.90
45096;DHT22;30858;51.108;8.068;2023-03-07T07:19:27;2.40;99.90
45096;DHT22;30858;51.108;8.068;2023-03-07T07:21:52;2.40;99.90
45096;DHT22;30858;51.108;8.068;2023-03-07T07:24:18;2.40;99.90
45096;DHT22;30858;51.108;8.068;2023-03-07T07:26:44;2.40;99.90
45096;DHT22;30858;51.108;8.068;2023-03-07T07:29:10;2.40;99.90
45096;DHT22;30858;51.108;8.068;2023-03-07T07:31:35;2.40;99.90
45096;DHT22;30858;51.108;8.068;2023-03-07T07:34:01;2.50;99.90
45096;DHT22;30858;51.108;8.068;2023-03-07T07:36:27;2.50;99.90
45096;DHT22;30858;51.108;8.068;2023-03-07T07:38:52;2.50;99.90
45096;DHT22;30858;51.108;8.068;2023-03-07T07:41:18;2.40;99.90
45096;DHT22;30858;51.108;8.068;2023-03-07T07:43:45;2.40;99.90
45096;DHT22;30858;51.108;8.068;2023-03-07T07:46:15;2.50;99.90
45096;DHT22;30858;51.108;8.068;2023-03-07T07:48:40;2.50;99.90
45096;DHT22;30858;51.108;8.068;2023-03-07T07:51:06;2.60;99.90
45096;DHT22;30858;51.108;8.068;2023-03-07T07:53:33;2.60;99.90
45096;DHT22;30858;51.108;8.068;2023-03-07T07:55:58;2.60;99.90
45096;DHT22;30858;51.108;8.068;2023-03-07T07:58:24;2.60;99.90
45096;DHT22;30858;51.108;8.068;2023-03-07T08:00:50;2.60;99.90
45096;DHT22;30858;51.108;8.068;2023-03-07T08:03:15;2.60;99.90
45096;DHT22;30858;51.108;8.068;2023-03-07T08:05:45;2.60;99.90
45096;DHT22;30858;51.108;8.068;2023-03-07T08:08:13;2.70;99.90
45096;DHT22;30858;51.108;8.068;2023-03-07T08:10:39;2.70;99.90
45096;DHT22;30858;51.108;8.068;2023-03-07T08:13:07;2.60;99.90
45096;DHT22;30858;51.108;8.068;2023-03-07T08:15:33;2.70;99.90
45096;DHT22;30858;51.108;8.068;2023-03-07T08:17:59;2.70;99.90
45096;DHT22;30858;51.108;8.068;2023-03-07T08:20:24;2.70;99.90
45096;DHT22;30858;51.108;8.068;2023-03-07T08:22:50;2.70;99.90
45096;DHT22;30858;51.108;8.068;2023-03-07T08:25:19;2.70;99.90
45096;DHT22;30858;51.108;8.068;2023-03-07T08:27:46;2.60;99.90
45096;DHT22;30858;51.108;8.068;2023-03-07T08:30:13;2.70;99.90
45096;DHT22;30858;51.108;8.068;2023-03-07T08:32:39;2.80;99.90
45096;DHT22;30858;51.108;8.068;2023-03-07T08:35:05;2.80;99.90
45096;DHT22;30858;51.108;8.068;2023-03-07T08:37:30;2.80;99.90
45096;DHT22;30858;51.108;8.068;2023-03-07T08:39:56;2.80;99.90
45096;DHT22;30858;51.108;8.068;2023-03-07T08:42:22;2.90;99.90
45096;DHT22;30858;51.108;8.068;2023-03-07T08:44:47;3.00;99.90
45096;DHT22;30858;51.108;8.068;2023-03-07T08:47:13;3.00;99.90
45096;DHT22;30858;51.108;8.068;2023-03-07T08:49:39;3.20;99.90
45096;DHT22;30858;51.108;8.068;2023-03-07T08:52:05;3.30;99.90
45096;DHT22;30858;51.108;8.068;2023-03-07T08:54:31;3.40;99.90
45096;DHT22;30858;51.108;8.068;2023-03-07T08:56:57;3.50;99.90
45096;DHT22;30858;51.108;8.068;2023-03-07T08:59:23;3.70;99.90
45096;DHT22;30858;51.108;8.068;2023-03-07T09:01:49;3.60;99.90
45096;DHT22;30858;51.108;8.068;2023-03-07T09:04:14;3.70;99.90
45096;DHT22;30858;51.108;8.068;2023-03-07T09:06:40;3.50;99.90
45096;DHT22;30858;51.108;8.068;2023-03-07T09:09:05;3.50;99.90
45096;DHT22;30858;51.108;8.068;2023-03-07T09:11:31;3.50;99.90
45096;DHT22;30858;51.108;8.068;2023-03-07T09:13:56;3.50;99.90
45096;DHT22;30858;51.108;8.068;2023-03-07T09:16:22;3.50;99.90
45096;DHT22;30858;51.108;8.068;2023-03-07T09:18:48;3.60;99.90
45096;DHT22;30858;51.108;8.068;2023-03-07T09:21:13;3.60;99.90
45096;DHT22;30858;51.108;8.068;2023-03-07T09:23:39;3.60;99.90
45096;DHT22;30858;51.108;8.068;2023-03-07T09:26:04;3.60;99.90
45096;DHT22;30858;51.108;8.068;2023-03-07T09:28:30;3.60;99.90
45096;DHT22;30858;51.108;8.068;2023-03-07T09:30:56;3.60;99.90
45096;DHT22;30858;51.108;8.068;2023-03-07T09:33:22;3.60;99.90
45096;DHT22;30858;51.108;8.068;2023-03-07T09:35:47;3.60;99.90
45096;DHT22;30858;51.108;8.068;2023-03-07T09:38:13;3.60;99.90
45096;DHT22;30858;51.108;8.068;2023-03-07T09:40:38;3.50;99.90
45096;DHT22;30858;51.108;8.068;2023-03-07T09:43:22;3.60;99.90
45096;DHT22;30858;51.108;8.068;2023-03-07T09:46:07;3.60;99.90
45096;DHT22;30858;51.108;8.068;2023-03-07T09:48:54;3.70;99.90
45096;DHT22;30858;51.108;8.068;2023-03-07T09:51:41;3.60;99.90
45096;DHT22;30858;51.108;8.068;2023-03-07T09:54:11;3.60;99.90
45096;DHT22;30858;51.108;8.068;2023-03-07T09:59:38;3.60;99.90
45096;DHT22;30858;51.108;8.068;2023-03-07T10:02:33;3.70;99.90
45096;DHT22;30858;51.108;8.068;2023-03-07T10:07:51;3.70;99.90
45096;DHT22;30858;51.108;8.068;2023-03-07T10:13:24;3.80;99.90
45096;DHT22;30858;51.108;8.068;2023-03-07T10:15:59;3.90;99.90
45096;DHT22;30858;51.108;8.068;2023-03-07T10:18:44;3.90;99.90
45096;DHT22;30858;51.108;8.068;2023-03-07T10:21:20;3.90;99.90
45096;DHT22;30858;51.108;8.068;2023-03-07T10:24:22;3.90;99.90
45096;DHT22;30858;51.108;8.068;2023-03-07T10:27:02;3.90;99.90
45096;DHT22;30858;51.108;8.068;2023-03-07T10:34:52;4.00;99.90
45096;DHT22;30858;51.108;8.068;2023-03-07T10:37:21;4.00;99.90
45096;DHT22;30858;51.108;8.068;2023-03-07T10:39:55;4.10;99.90
45096;DHT22;30858;51.108;8.068;2023-03-07T10:42:22;4.10;99.90
45096;DHT22;30858;51.108;8.068;2023-03-07T10:44:49;4.10;99.90
45096;DHT22;30858;51.108;8.068;2023-03-07T10:47:24;4.10;99.90
45096;DHT22;30858;51.108;8.068;2023-03-07T10:49:53;4.10;99.90
45096;DHT22;30858;51.108;8.068;2023-03-07T10:54:50;4.10;99.90
45096;DHT22;30858;51.108;8.068;2023-03-07T10:57:17;4.00;99.90
45096;DHT22;30858;51.108;8.068;2023-03-07T10:59:45;4.00;99.90
45096;DHT22;30858;51.108;8.068;2023-03-07T11:02:36;4.10;99.90
45096;DHT22;30858;51.108;8.068;2023-03-07T11:05:20;4.00;99.90
45096;DHT22;30858;51.108;8.068;2023-03-07T11:07:49;4.10;99.90
45096;DHT22;30858;51.108;8.068;2023-03-07T11:10:37;4.00;99.90
45096;DHT22;30858;51.108;8.068;2023-03-07T11:13:13;4.00;99.90
45096;DHT22;30858;51.108;8.068;2023-03-07T11:15:39;4.00;99.90
45096;DHT22;30858;51.108;8.068;2023-03-07T11:20:49;4.00;99.90
45096;DHT22;30858;51.108;8.068;2023-03-07T11:23:26;4.00;99.90
45096;DHT22;30858;51.108;8.068;2023-03-07T11:25:54;3.90;99.90
45096;DHT22;30858;51.108;8.068;2023-03-07T11:28:27;4.00;99.90
45096;DHT22;30858;51.108;8.068;2023-03-07T11:33:51;4.00;99.90
45096;DHT22;30858;51.108;8.068;2023-03-07T11:36:22;4.10;99.90
45096;DHT22;30858;51.108;8.068;2023-03-07T11:39:21;4.00;99.90
45096;DHT22;30858;51.108;8.068;2023-03-07T11:41:54;4.00;99.90
45096;DHT22;30858;51.108;8.068;2023-03-07T11:52:16;3.90;99.90
45096;DHT22;30858;51.108;8.068;2023-03-07T12:00:25;3.90;99.90
45096;DHT22;30858;51.108;8.068;2023-03-07T12:14:40;3.90;99.90
45096;DHT22;30858;51.108;8.068;2023-03-07T12:22:55;4.00;99.90
45096;DHT22;30858;51.108;8.068;2023-03-07T12:25:44;4.00;99.90
45096;DHT22;30858;51.108;8.068;2023-03-07T12:31:23;4.00;99.90
45096;DHT22;30858;51.108;8.068;2023-03-07T12:34:10;3.80;99.90
45096;DHT22;30858;51.108;8.068;2023-03-07T12:36:51;3.90;99.90
45096;DHT22;30858;51.108;8.068;2023-03-07T12:39:23;3.90;99.90
45096;DHT22;30858;51.108;8.068;2023-03-07T12:42:12;3.90;99.90
45096;DHT22;30858;51.108;8.068;2023-03-07T12:50:00;3.70;99.90
45096;DHT22;30858;51.108;8.068;2023-03-07T12:52:43;3.70;99.90
45096;DHT22;30858;51.108;8.068;2023-03-07T13:00:28;3.50;99.90
45096;DHT22;30858;51.108;8.068;2023-03-07T13:03:02;3.50;99.90
45096;DHT22;30858;51.108;8.068;2023-03-07T13:05:33;3.40;99.90
45096;DHT22;30858;51.108;8.068;2023-03-07T13:08:00;3.40;99.90
45096;DHT22;30858;51.108;8.068;2023-03-07T13:10:26;3.30;99.90
45096;DHT22;30858;51.108;8.068;2023-03-07T13:12:52;3.40;99.90
45096;DHT22;30858;51.108;8.068;2023-03-07T13:28:00;3.20;99.90
45096;DHT22;30858;51.108;8.068;2023-03-07T13:30:27;3.00;99.90
45096;DHT22;30858;51.108;8.068;2023-03-07T13:32:56;2.90;99.90
45096;DHT22;30858;51.108;8.068;2023-03-07T13:41:03;2.80;99.90
45096;DHT22;30858;51.108;8.068;2023-03-07T13:43:32;2.70;99.90
45096;DHT22;30858;51.108;8.068;2023-03-07T13:46:04;2.80;99.90
45096;DHT22;30858;51.108;8.068;2023-03-07T13:51:18;2.60;99.90
45096;DHT22;30858;51.108;8.068;2023-03-07T13:53:45;2.70;99.90
45096;DHT22;30858;51.108;8.068;2023-03-07T14:04:41;2.60;99.90
45096;DHT22;30858;51.108;8.068;2023-03-07T14:07:20;2.60;99.90
45096;DHT22;30858;51.108;8.068;2023-03-07T14:09:58;2.60;99.90
45096;DHT22;30858;51.108;8.068;2023-03-07T14:18:23;2.60;99.90
45096;DHT22;30858;51.108;8.068;2023-03-07T14:26:37;2.30;99.90
45096;DHT22;30858;51.108;8.068;2023-03-07T14:29:24;2.30;99.90
45096;DHT22;30858;51.108;8.068;2023-03-07T14:31:55;2.30;99.90
45096;DHT22;30858;51.108;8.068;2023-03-07T14:34:27;2.40;99.90
45096;DHT22;30858;51.108;8.068;2023-03-07T14:36:56;2.40;99.90
45096;DHT22;30858;51.108;8.068;2023-03-07T14:39:28;2.40;99.90
45096;DHT22;30858;51.108;8.068;2023-03-07T14:45:33;2.30;99.90
45096;DHT22;30858;51.108;8.068;2023-03-07T14:50:33;2.10;99.90
45096;DHT22;30858;51.108;8.068;2023-03-07T14:53:08;2.20;99.90
45096;DHT22;30858;51.108;8.068;2023-03-07T14:55:42;2.20;99.90
45096;DHT22;30858;51.108;8.068;2023-03-07T14:58:21;2.20;99.90
45096;DHT22;30858;51.108;8.068;2023-03-07T15:01:12;2.20;99.90
45096;DHT22;30858;51.108;8.068;2023-03-07T15:03:48;2.20;99.90
45096;DHT22;30858;51.108;8.068;2023-03-07T15:06:16;2.10;99.90
45096;DHT22;30858;51.108;8.068;2023-03-07T15:08:43;2.10;99.90
45096;DHT22;30858;51.108;8.068;2023-03-07T15:13:55;2.10;99.90
45096;DHT22;30858;51.108;8.068;2023-03-07T15:16:37;2.10;99.90
45096;DHT22;30858;51.108;8.068;2023-03-07T15:19:18;2.00;99.90
45096;DHT22;30858;51.108;8.068;2023-03-07T15:21:51;1.80;99.90
45096;DHT22;30858;51.108;8.068;2023-03-07T15:26:51;1.90;99.90
45096;DHT22;30858;51.108;8.068;2023-03-07T15:29:22;1.90;99.90
45096;DHT22;30858;51.108;8.068;2023-03-07T15:32:00;1.90;99.90
45096;DHT22;30858;51.108;8.068;2023-03-07T15:34:30;2.00;99.90
45096;DHT22;30858;51.108;8.068;2023-03-07T15:37:22;1.90;99.90
45096;DHT22;30858;51.108;8.068;2023-03-07T15:42:31;1.80;99.90
45096;DHT22;30858;51.108;8.068;2023-03-07T15:44:59;1.80;99.90
45096;DHT22;30858;51.108;8.068;2023-03-07T15:47:27;1.80;99.90
45096;DHT22;30858;51.108;8.068;2023-03-07T15:49:55;1.80;99.90
45096;DHT22;30858;51.108;8.068;2023-03-07T15:52:31;1.80;99.90
45096;DHT22;30858;51.108;8.068;2023-03-07T15:54:59;1.80;99.90
45096;DHT22;30858;51.108;8.068;2023-03-07T15:57:29;1.80;99.90
45096;DHT22;30858;51.108;8.068;2023-03-07T16:00:05;1.80;99.90
45096;DHT22;30858;51.108;8.068;2023-03-07T16:07:45;1.60;99.90
45096;DHT22;30858;51.108;8.068;2023-03-07T16:10:11;1.50;99.90
45096;DHT22;30858;51.108;8.068;2023-03-07T16:12:38;1.50;99.90
45096;DHT22;30858;51.108;8.068;2023-03-07T16:15:13;1.60;99.90
45096;DHT22;30858;51.108;8.068;2023-03-07T16:17:39;1.50;99.90
45096;DHT22;30858;51.108;8.068;2023-03-07T16:20:16;1.40;99.90
45096;DHT22;30858;51.108;8.068;2023-03-07T16:22:42;1.40;99.90
45096;DHT22;30858;51.108;8.068;2023-03-07T16:25:08;1.50;99.90
45096;DHT22;30858;51.108;8.068;2023-03-07T16:27:35;1.50;99.90
45096;DHT22;30858;51.108;8.068;2023-03-07T16:30:04;1.50;99.90
45096;DHT22;30858;51.108;8.068;2023-03-07T16:32:31;1.50;99.90
45096;DHT22;30858;51.108;8.068;2023-03-07T16:34:57;1.40;99.90
45096;DHT22;30858;51.108;8.068;2023-03-07T16:37:22;1.40;99.90
45096;DHT22;30858;51.108;8.068;2023-03-07T16:39:48;1.30;99.90
45096;DHT22;30858;51.108;8.068;2023-03-07T16:42:22;1.50;99.90
45096;DHT22;30858;51.108;8.068;2023-03-07T16:44:49;1.40;99.90
45096;DHT22;30858;51.108;8.068;2023-03-07T16:47:16;1.50;99.90
45096;DHT22;30858;51.108;8.068;2023-03-07T16:49:42;1.50;99.90
45096;DHT22;30858;51.108;8.068;2023-03-07T16:52:11;1.40;99.90
45096;DHT22;30858;51.108;8.068;2023-03-07T16:54:37;1.40;99.90
45096;DHT22;30858;51.108;8.068;2023-03-07T16:57:03;1.30;99.90
45096;DHT22;30858;51.108;8.068;2023-03-07T16:59:34;1.30;99.90
45096;DHT22;30858;51.108;8.068;2023-03-07T17:02:09;1.30;99.90
45096;DHT22;30858;51.108;8.068;2023-03-07T17:04:35;1.50;99.90
45096;DHT22;30858;51.108;8.068;2023-03-07T17:07:01;1.40;99.90
45096;DHT22;30858;51.108;8.068;2023-03-07T17:09:27;1.30;99.90
45096;DHT22;30858;51.108;8.068;2023-03-07T17:11:53;1.30;99.90
45096;DHT22;30858;51.108;8.068;2023-03-07T17:14:18;1.30;99.90
45096;DHT22;30858;51.108;8.068;2023-03-07T17:16:46;1.40;99.90
45096;DHT22;30858;51.108;8.068;2023-03-07T17:19:27;1.40;99.90
45096;DHT22;30858;51.108;8.068;2023-03-07T17:21:53;1.40;99.90
45096;DHT22;30858;51.108;8.068;2023-03-07T17:24:19;1.40;99.90
45096;DHT22;30858;51.108;8.068;2023-03-07T17:26:45;1.40;99.90
45096;DHT22;30858;51.108;8.068;2023-03-07T17:29:20;1.40;99.90
45096;DHT22;30858;51.108;8.068;2023-03-07T17:31:49;1.30;99.90
45096;DHT22;30858;51.108;8.068;2023-03-07T17:34:27;1.30;99.90
45096;DHT22;30858;51.108;8.068;2023-03-07T17:36:53;1.20;99.90
45096;DHT22;30858;51.108;8.068;2023-03-07T17:39:19;1.20;99.90
45096;DHT22;30858;51.108;8.068;2023-03-07T17:41:45;1.20;99.90
45096;DHT22;30858;51.108;8.068;2023-03-07T17:44:11;1.20;99.90
45096;DHT22;30858;51.108;8.068;2023-03-07T17:46:36;1.20;99.90
45096;DHT22;30858;51.108;8.068;2023-03-07T17:49:02;1.20;99.90
45096;DHT22;30858;51.108;8.068;2023-03-07T17:51:28;1.20;99.90
45096;DHT22;30858;51.108;8.068;2023-03-07T17:53:54;1.30;99.90
45096;DHT22;30858;51.108;8.068;2023-03-07T17:56:19;1.30;99.90
45096;DHT22;30858;51.108;8.068;2023-03-07T17:58:45;1.30;99.90
45096;DHT22;30858;51.108;8.068;2023-03-07T18:01:10;1.30;99.90
45096;DHT22;30858;51.108;8.068;2023-03-07T18:03:39;1.20;99.90
45096;DHT22;30858;51.108;8.068;2023-03-07T18:06:06;1.30;99.90
45096;DHT22;30858;51.108;8.068;2023-03-07T18:08:32;1.30;99.90